»·PEaware :: N72G KSBP-KIYK

N72G :: KSBP-KIYK

FLIGHT INFORMATION

Flight Status: Arrived
Operator: Privately registered:
United States
More flights under this callsign
Pilot: Joe Kennebeck (15257)
Aircraft: ECLIPSE 500
(EA50)
More flights by this aircraft type
Origin: KSBP San Luis Co Regl
United States
Destination: KIYK Inyokern
United States
More flights between these airports :: More routes between these airports
Route: +FLW EHF
File this flight plan on PilotEdge
Remarks:
Altitude:
(Current/Filed)
17,000ft
Speed:
(Current/Filed)
350kts
Departed: 09-Jun-17 08:19 PM
Arrived: 09-Jun-17 09:06 PM
Distance/Time
Traveled:
140nm/0:46
Distance/Time
To Go:
Arrived

Flight Plot

Page will automatically refresh every two minutes.

Flight plan parsing failed; only flown route is shown


Map Options




Map Legend


Flown Route
Filed Route
Departure Airport
Arrival Airport
Navaid (VOR, NDB)
Fix

Horizontal Profiles

Position Reports

Time Latitude Longitude Heading Altitude Ground
Speed
09-Jun-17 20:02 35.239423 -120.647507 211 214ft 0kts
09-Jun-17 20:03 35.239423 -120.647507 211 214ft 0kts
09-Jun-17 20:04 35.239423 -120.647507 211 214ft 0kts
09-Jun-17 20:05 35.239423 -120.647507 211 214ft 0kts
09-Jun-17 20:06 35.239423 -120.647507 211 214ft 0kts
09-Jun-17 20:07 35.239423 -120.647507 211 214ft 0kts
09-Jun-17 20:08 35.239423 -120.647507 211 214ft 0kts
09-Jun-17 20:09 35.239423 -120.647507 211 214ft 0kts
09-Jun-17 20:10 35.239423 -120.647507 211 214ft 0kts
09-Jun-17 20:11 35.239423 -120.647507 211 214ft 0kts
09-Jun-17 20:12 35.239423 -120.647507 211 214ft 0kts
09-Jun-17 20:13 35.239423 -120.647507 211 214ft 0kts
09-Jun-17 20:14 35.239377 -120.647542 211 214ft 4kts
09-Jun-17 20:15 35.238330 -120.645169 125 214ft 9kts
09-Jun-17 20:16 35.237793 -120.641648 91 214ft 12kts
09-Jun-17 20:17 35.237785 -120.640855 89 214ft 7kts
09-Jun-17 20:18 35.235156 -120.635237 124 214ft 24kts
09-Jun-17 20:19 35.233240 -120.632264 198 214ft 0kts
09-Jun-17 20:20 35.233205 -120.632278 198 214ft 0kts
09-Jun-17 20:21 35.242549 -120.650745 302 319ft 139kts
09-Jun-17 20:22 35.259187 -120.684634 301 1941ft 132kts
09-Jun-17 20:23 35.280403 -120.725672 303 2833ft 150kts
09-Jun-17 20:24 35.308790 -120.758459 6 4801ft 161kts
09-Jun-17 20:25 35.320729 -120.707991 92 6240ft 175kts
09-Jun-17 20:26 35.318876 -120.647623 92 7255ft 179kts
09-Jun-17 20:27 35.306639 -120.589065 113 8212ft 181kts
09-Jun-17 20:28 35.289050 -120.531047 111 9000ft 183kts
09-Jun-17 20:29 35.297262 -120.468134 78 9689ft 191kts
09-Jun-17 20:30 35.307579 -120.403657 80 10647ft 195kts
09-Jun-17 20:31 35.317327 -120.338078 81 11507ft 200kts
09-Jun-17 20:32 35.327020 -120.270219 82 12487ft 205kts
09-Jun-17 20:33 35.336784 -120.200423 81 13387ft 211kts
09-Jun-17 20:34 35.346746 -120.128607 80 14240ft 217kts
09-Jun-17 20:35 35.356935 -120.054633 79 15052ft 222kts
09-Jun-17 20:36 35.367246 -119.979402 78 15806ft 227kts
09-Jun-17 20:37 35.377767 -119.902238 77 16476ft 232kts
09-Jun-17 20:38 35.388604 -119.822673 77 16871ft 248kts
09-Jun-17 20:39 35.400513 -119.734824 77 16871ft 269kts
09-Jun-17 20:40 35.412677 -119.644110 77 16871ft 271kts
09-Jun-17 20:41 35.424830 -119.553043 77 16872ft 271kts
09-Jun-17 20:42 35.436924 -119.461800 77 16872ft 271kts
09-Jun-17 20:43 35.448991 -119.370316 77 16873ft 272kts
09-Jun-17 20:44 35.460845 -119.279894 78 16874ft 270kts
09-Jun-17 20:45 35.472535 -119.190022 77 16994ft 267kts
09-Jun-17 20:46 35.483478 -119.099893 89 16992ft 270kts
09-Jun-17 20:47 35.479254 -119.008070 92 16996ft 270kts
09-Jun-17 20:48 35.474313 -118.916422 92 16996ft 271kts
09-Jun-17 20:49 35.469104 -118.824246 92 16997ft 271kts
09-Jun-17 20:50 35.463785 -118.731953 92 16998ft 271kts
09-Jun-17 20:51 35.458347 -118.639378 92 16999ft 272kts
09-Jun-17 20:52 35.452897 -118.547751 92 17079ft 269kts
09-Jun-17 20:53 35.447333 -118.455445 92 17109ft 273kts
09-Jun-17 20:54 35.440682 -118.362112 109 17052ft 278kts
09-Jun-17 20:55 35.404409 -118.287645 125 15697ft 243kts
09-Jun-17 20:56 35.370451 -118.219644 132 13784ft 225kts
09-Jun-17 20:57 35.328707 -118.168839 142 11876ft 205kts
09-Jun-17 20:58 35.289662 -118.120583 124 9973ft 203kts
09-Jun-17 20:59 35.318349 -118.072660 24 8217ft 193kts
09-Jun-17 21:00 35.363332 -118.040894 24 7131ft 170kts
09-Jun-17 21:01 35.401696 -118.013224 24 7133ft 163kts
09-Jun-17 21:02 35.444511 -117.982239 29 6479ft 191kts
09-Jun-17 21:03 35.491476 -117.947927 29 5588ft 201kts
09-Jun-17 21:04 35.539489 -117.912918 29 4582ft 211kts
09-Jun-17 21:05 35.581673 -117.881915 29 4078ft 130kts
09-Jun-17 21:06 35.610923 -117.859994 29 3414ft 119kts
09-Jun-17 21:07 35.639652 -117.839870 36 2707ft 124kts
09-Jun-17 21:08 35.661833 -117.823480 35 2458ft 30kts

Navigation Log

Ident Type
Flight plan parsing failed, navigation log unavailable